createdAt,value
2023-02-03T00:03:09.363Z,19.83
2023-02-03T00:07:13.756Z,19.64
2023-02-03T00:11:15.191Z,19.99
2023-02-03T00:15:16.823Z,19.47
2023-02-03T00:19:18.158Z,19.68
2023-02-03T00:23:20.096Z,19.71
2023-02-03T00:27:21.494Z,19.76
2023-02-03T00:31:24.745Z,19.93
2023-02-03T00:35:26.241Z,19.22
2023-02-03T00:39:27.622Z,19.57
2023-02-03T00:43:29.040Z,19.27
2023-02-03T00:47:30.382Z,19.90
2023-02-03T00:51:32.177Z,19.29
2023-02-03T00:55:33.479Z,19.77
2023-02-03T00:59:34.815Z,19.60
2023-02-03T01:03:36.363Z,19.44
2023-02-03T01:07:38.063Z,19.66
2023-02-03T01:11:39.424Z,19.37
2023-02-03T01:15:48.141Z,19.42
2023-02-03T01:19:51.322Z,19.99
2023-02-03T01:23:53.597Z,18.82
2023-02-03T01:27:54.925Z,19.62
2023-02-03T01:31:56.409Z,19.14
2023-02-03T01:36:00.705Z,19.67
2023-02-03T01:40:02.166Z,19.50
2023-02-03T01:44:41.154Z,19.61
2023-02-03T01:48:42.831Z,20.00
2023-02-03T01:52:47.509Z,19.33
2023-02-03T01:56:59.238Z,19.45
2023-02-03T02:01:00.713Z,19.61
2023-02-03T02:05:08.015Z,19.49
2023-02-03T02:09:09.425Z,19.80
2023-02-03T02:13:12.866Z,19.72
2023-02-03T02:17:57.469Z,19.70
2023-02-03T02:22:30.456Z,19.74
2023-02-03T02:27:02.609Z,19.57
2023-02-03T02:31:34.004Z,19.61
2023-02-03T02:35:51.473Z,19.52
2023-02-03T02:40:08.325Z,19.70
2023-02-03T02:44:35.160Z,19.94
2023-02-03T02:48:40.098Z,19.78
2023-02-03T02:52:44.824Z,19.63
2023-02-03T02:56:51.764Z,19.48
2023-02-03T03:00:53.046Z,19.40
2023-02-03T03:04:54.773Z,19.48
2023-02-03T03:09:18.249Z,19.98
2023-02-03T03:13:25.659Z,19.61
2023-02-03T03:17:43.158Z,19.72
2023-02-03T03:21:52.269Z,19.65
2023-02-03T03:26:04.351Z,19.43
2023-02-03T03:30:14.302Z,19.85
2023-02-03T03:34:17.256Z,19.62
2023-02-03T03:38:31.843Z,19.29
2023-02-03T03:42:40.698Z,19.51
2023-02-03T03:46:50.372Z,19.52
2023-02-03T03:50:55.582Z,19.57
2023-02-03T03:54:59.438Z,19.72
2023-02-03T03:59:03.927Z,19.41
2023-02-03T04:03:14.400Z,19.51
2023-02-03T04:07:16.028Z,19.63
2023-02-03T04:11:37.350Z,19.46
2023-02-03T04:15:39.065Z,20.02
2023-02-03T04:19:40.424Z,19.68
2023-02-03T04:23:41.766Z,19.41
2023-02-03T04:27:43.217Z,19.99
2023-02-03T04:31:44.703Z,19.84
2023-02-03T04:35:46.043Z,19.81
2023-02-03T04:39:47.439Z,19.49
2023-02-03T04:43:48.784Z,19.44
2023-02-03T04:47:54.604Z,19.73
2023-02-03T04:51:56.071Z,19.61
2023-02-03T04:55:57.701Z,19.39
2023-02-03T04:59:58.999Z,19.54
2023-02-03T05:04:00.434Z,19.51
2023-02-03T05:08:01.849Z,20.04
2023-02-03T05:12:03.277Z,19.82
2023-02-03T05:16:05.023Z,19.66
2023-02-03T05:20:07.761Z,19.06
2023-02-03T05:24:09.289Z,19.34
2023-02-03T05:28:10.842Z,19.27
2023-02-03T05:32:12.194Z,19.57
2023-02-03T05:36:13.553Z,19.22
2023-02-03T05:40:33.340Z,19.84
2023-02-03T05:44:34.692Z,19.08
2023-02-03T05:48:36.087Z,18.95
2023-02-03T05:52:37.684Z,19.34
2023-02-03T05:56:39.422Z,19.63
2023-02-03T06:00:40.833Z,19.81
2023-02-03T06:04:44.822Z,19.64
2023-02-03T06:08:46.238Z,19.28
2023-02-03T06:12:50.628Z,19.37
2023-02-03T06:16:52.019Z,19.57
2023-02-03T06:20:53.555Z,19.26
2023-02-03T06:24:55.183Z,19.40
2023-02-03T06:28:56.511Z,19.21
2023-02-03T06:32:57.881Z,19.35
2023-02-03T06:36:59.491Z,19.24
2023-02-03T06:41:03.202Z,19.06
2023-02-03T06:45:05.354Z,19.77
2023-02-03T06:49:06.670Z,19.43
2023-02-03T06:53:07.992Z,19.07
2023-02-03T06:57:09.374Z,19.64
2023-02-03T07:01:10.752Z,19.72
2023-02-03T07:05:12.258Z,19.21
2023-02-03T07:09:13.622Z,19.58
2023-02-03T07:13:14.989Z,19.35
2023-02-03T07:17:16.299Z,19.52
2023-02-03T07:21:17.786Z,19.66
2023-02-03T07:25:19.464Z,19.46
2023-02-03T07:29:20.849Z,19.32
2023-02-03T07:33:22.203Z,19.77
2023-02-03T07:37:23.546Z,19.33
2023-02-03T07:41:24.981Z,19.04
2023-02-03T07:45:26.353Z,19.38
2023-02-03T07:49:27.667Z,19.75
2023-02-03T07:53:28.997Z,19.32
2023-02-03T07:57:30.512Z,19.45
2023-02-03T08:01:32.115Z,19.64
2023-02-03T08:05:33.502Z,19.70
2023-02-03T08:09:35.113Z,19.63
2023-02-03T08:13:36.512Z,19.65
2023-02-03T08:17:40.066Z,19.80
2023-02-03T08:21:41.361Z,19.78
2023-02-03T08:25:42.914Z,19.47
2023-02-03T08:29:45.961Z,19.60
2023-02-03T08:33:47.266Z,19.87
2023-02-03T08:37:48.595Z,19.74
2023-02-03T08:41:49.947Z,20.10
2023-02-03T08:45:51.361Z,19.45
2023-02-03T08:49:52.789Z,19.12
2023-02-03T08:53:54.147Z,19.30
2023-02-03T08:57:56.089Z,19.49
2023-02-03T09:01:59.718Z,19.59
2023-02-03T09:06:01.545Z,19.48
2023-02-03T09:10:03.008Z,19.65
2023-02-03T09:14:06.646Z,19.50
2023-02-03T09:18:08.639Z,20.00
2023-02-03T09:22:09.989Z,19.16
2023-02-03T09:26:13.400Z,19.70
2023-02-03T09:30:14.993Z,19.24
2023-02-03T09:34:16.277Z,19.35
2023-02-03T09:38:38.389Z,19.27
2023-02-03T09:43:26.561Z,19.31
2023-02-03T09:47:43.392Z,19.11
2023-02-03T09:51:54.534Z,19.54
2023-02-03T09:55:57.496Z,19.29
2023-02-03T10:00:03.933Z,19.76
2023-02-03T10:04:22.288Z,19.47
2023-02-03T10:09:08.240Z,19.26
2023-02-03T10:13:34.185Z,19.35
2023-02-03T10:17:48.140Z,19.62
2023-02-03T10:21:58.459Z,19.31
2023-02-03T10:26:04.347Z,19.32
2023-02-03T10:30:23.657Z,19.57
2023-02-03T10:34:25.652Z,19.79
2023-02-03T10:38:32.857Z,20.01
2023-02-03T10:42:53.338Z,19.35
2023-02-03T10:46:55.371Z,19.51
2023-02-03T10:50:57.924Z,19.58
2023-02-03T10:54:59.633Z,19.84
2023-02-03T10:59:01.220Z,19.57
2023-02-03T11:03:14.590Z,19.93
2023-02-03T11:07:25.843Z,19.66
2023-02-03T11:11:34.054Z,19.51
2023-02-03T11:15:35.445Z,19.12
2023-02-03T11:19:38.686Z,19.21
2023-02-03T11:23:50.265Z,19.24
2023-02-03T11:27:53.045Z,18.95
2023-02-03T11:31:57.099Z,19.97
2023-02-03T11:35:59.759Z,19.50
2023-02-03T11:40:06.959Z,19.75
2023-02-03T11:44:31.095Z,19.70
2023-02-03T11:48:35.130Z,19.96
2023-02-03T11:53:27.211Z,20.26
2023-02-03T11:57:35.264Z,19.78
2023-02-03T12:02:04.777Z,19.63
2023-02-03T12:06:12.045Z,20.34
2023-02-03T12:10:36.619Z,19.83
2023-02-03T12:14:56.638Z,19.80
2023-02-03T12:19:14.156Z,20.05
2023-02-03T12:23:49.864Z,19.75
2023-02-03T12:28:32.877Z,19.93
2023-02-03T12:32:41.509Z,20.13
2023-02-03T12:36:49.843Z,19.87
2023-02-03T12:41:01.789Z,20.34
2023-02-03T12:45:09.047Z,19.61
2023-02-03T12:49:48.108Z,20.14
2023-02-03T12:53:56.896Z,19.61
2023-02-03T12:58:03.002Z,20.32
2023-02-03T13:02:18.992Z,19.88
2023-02-03T13:06:27.482Z,19.76
2023-02-03T13:10:36.898Z,20.07
2023-02-03T13:14:44.714Z,20.35
2023-02-03T13:18:52.282Z,20.01
2023-02-03T13:22:53.640Z,20.15
2023-02-03T13:27:19.846Z,19.97
2023-02-03T13:31:46.052Z,19.95
2023-02-03T13:36:03.480Z,20.02
2023-02-03T13:40:31.451Z,19.86
2023-02-03T13:44:34.308Z,20.09
2023-02-03T13:48:36.499Z,19.97
2023-02-03T13:52:56.880Z,19.75
2023-02-03T13:57:02.329Z,20.07
2023-02-03T14:01:03.706Z,20.25
2023-02-03T14:05:06.418Z,20.11
2023-02-03T14:09:34.288Z,19.76
2023-02-03T14:13:35.658Z,20.26
2023-02-03T14:17:42.911Z,20.11
2023-02-03T14:21:51.377Z,19.61
2023-02-03T14:25:57.475Z,20.07
2023-02-03T14:30:08.557Z,20.57
2023-02-03T14:34:14.511Z,20.33
2023-02-03T14:38:15.927Z,20.50
2023-02-03T14:42:44.134Z,20.62
2023-02-03T14:47:08.994Z,20.78
2023-02-03T14:51:30.919Z,20.60
2023-02-03T14:55:41.436Z,20.61
2023-02-03T14:59:50.920Z,20.10
2023-02-03T15:04:10.818Z,20.10
2023-02-03T15:08:32.061Z,20.16
2023-02-03T15:12:37.810Z,20.61
2023-02-03T15:16:42.970Z,20.19
2023-02-03T15:20:53.396Z,20.57
2023-02-03T15:25:07.667Z,20.75
2023-02-03T15:29:26.653Z,20.54
2023-02-03T15:33:31.781Z,20.38
2023-02-03T15:37:47.513Z,20.55
2023-02-03T15:41:54.145Z,20.36
2023-02-03T15:46:04.535Z,20.31
2023-02-03T15:50:34.346Z,20.60
2023-02-03T15:54:45.542Z,20.04
2023-02-03T15:58:47.711Z,20.50
2023-02-03T16:02:49.140Z,20.45
2023-02-03T16:06:52.624Z,20.32
2023-02-03T16:10:54.248Z,20.12
2023-02-03T16:14:57.535Z,20.06
2023-02-03T16:19:04.259Z,19.78
2023-02-03T16:23:24.391Z,20.36
2023-02-03T16:27:25.779Z,20.29
2023-02-03T16:31:45.717Z,19.67
2023-02-03T16:36:05.387Z,19.98
2023-02-03T16:40:25.789Z,19.82
2023-02-03T16:44:45.904Z,19.66
2023-02-03T16:49:05.685Z,19.17
2023-02-03T16:53:13.185Z,19.39
2023-02-03T16:57:14.478Z,19.01
2023-02-03T17:01:16.059Z,19.32
2023-02-03T17:05:18.385Z,19.21
2023-02-03T17:09:24.832Z,19.44
2023-02-03T17:13:26.196Z,19.44
2023-02-03T17:17:27.524Z,19.22
2023-02-03T17:21:30.198Z,19.13
2023-02-03T17:25:35.973Z,19.21
2023-02-03T17:29:37.783Z,19.42
2023-02-03T17:33:39.260Z,19.43
2023-02-03T17:37:40.755Z,19.17
2023-02-03T17:54:39.744Z,19.42
2023-02-03T17:58:41.972Z,19.23
2023-02-03T18:02:43.523Z,19.11
2023-02-03T18:06:46.283Z,19.34
2023-02-03T18:10:47.735Z,18.88
2023-02-03T18:14:49.467Z,19.03
2023-02-03T18:18:52.607Z,18.62
2023-02-03T18:22:53.991Z,19.15
2023-02-03T18:26:55.632Z,19.08
2023-02-03T18:31:02.968Z,18.41
2023-02-03T18:35:06.674Z,19.02
2023-02-03T18:39:11.132Z,18.58
2023-02-03T18:43:14.189Z,18.62
2023-02-03T18:47:15.660Z,19.03
2023-02-03T18:51:18.888Z,18.80
2023-02-03T18:55:20.375Z,18.69
2023-02-03T18:59:21.839Z,19.11
2023-02-03T19:03:25.210Z,19.04
2023-02-03T19:07:26.665Z,18.87
2023-02-03T19:11:28.409Z,19.13
2023-02-03T19:15:29.879Z,18.62
2023-02-03T19:19:31.272Z,19.17
2023-02-03T19:23:32.983Z,18.82
2023-02-03T19:27:34.268Z,18.79
2023-02-03T19:31:35.808Z,18.87
2023-02-03T19:35:38.449Z,18.86
2023-02-03T19:39:39.848Z,19.22
2023-02-03T19:43:41.305Z,19.11
2023-02-03T19:47:42.856Z,19.08
2023-02-03T19:51:44.525Z,18.94
2023-02-03T19:55:46.520Z,19.11
2023-02-03T19:59:47.951Z,18.73
2023-02-03T20:03:50.864Z,18.53
2023-02-03T20:07:53.148Z,18.88
2023-02-03T20:11:56.105Z,18.94
2023-02-03T20:15:58.081Z,19.20
2023-02-03T20:19:59.483Z,18.79
2023-02-03T20:24:00.897Z,19.29
2023-02-03T20:28:03.787Z,19.25
2023-02-03T20:32:07.178Z,19.27
2023-02-03T20:36:11.536Z,19.17
2023-02-03T20:40:19.356Z,19.18
2023-02-03T20:44:20.866Z,19.35
2023-02-03T20:48:23.886Z,19.32
2023-02-03T20:52:25.146Z,18.77
2023-02-03T20:56:26.674Z,19.05
2023-02-03T21:00:29.192Z,19.13
2023-02-03T21:04:49.202Z,19.03
2023-02-03T21:08:50.609Z,19.19
2023-02-03T21:12:52.791Z,18.82
2023-02-03T21:16:54.768Z,19.29
2023-02-03T21:20:56.528Z,19.12
2023-02-03T21:25:00.002Z,19.61
2023-02-03T21:29:01.624Z,19.71
2023-02-03T21:33:29.261Z,19.11
2023-02-03T21:37:39.474Z,19.01
2023-02-03T21:41:40.874Z,19.08
2023-02-03T21:45:43.048Z,19.08
2023-02-03T21:49:44.462Z,18.31
2023-02-03T21:53:52.909Z,19.19
2023-02-03T21:57:54.578Z,19.10
2023-02-03T22:01:59.797Z,19.04
2023-02-03T22:06:13.671Z,19.10
2023-02-03T22:10:15.164Z,19.12
2023-02-03T22:14:18.086Z,19.07
2023-02-03T22:18:19.378Z,19.13
2023-02-03T22:22:20.728Z,19.33
2023-02-03T22:26:22.220Z,19.22
2023-02-03T22:30:23.597Z,19.18
2023-02-03T22:34:25.271Z,19.09
2023-02-03T22:38:26.642Z,18.87
2023-02-03T22:42:28.142Z,18.68
2023-02-03T22:46:29.510Z,19.04
2023-02-03T22:50:35.989Z,18.71
2023-02-03T22:54:37.586Z,18.93
2023-02-03T22:58:38.948Z,19.00
2023-02-03T23:02:41.072Z,19.00
2023-02-03T23:06:42.334Z,19.16
2023-02-03T23:10:43.721Z,19.12
2023-02-03T23:14:45.120Z,19.08
2023-02-03T23:18:46.472Z,19.39
2023-02-03T23:22:48.206Z,18.66
2023-02-03T23:26:49.612Z,19.12
2023-02-03T23:30:51.005Z,19.05
2023-02-03T23:35:11.128Z,19.33
2023-02-03T23:39:12.424Z,18.85
2023-02-03T23:43:14.407Z,18.79
2023-02-03T23:47:15.876Z,18.89
2023-02-03T23:51:17.221Z,19.02
2023-02-03T23:55:20.946Z,19.09
2023-02-03T23:59:22.642Z,18.56
